Time;durP1;ratioP1;P1;durP2;ratioP2;P2;SDS_P1;SDS_P2;PMS_P1;PMS_P2;Temp;Humidity;BMP_temperature;BMP_pressure;BME280_temperature;BME280_humidity;BME280_pressure;Samples;Min_cycle;Max_cycle;Signal;HPM_P1;HPM_P2
2023/03/31 00:02:21;;;;;;;2.47;0.80;;;;;;;9.80;66.52;97377.16;6149064;28;20242;-45
2023/03/31 00:05:26;;;;;;;0.83;0.80;;;;;;;9.78;67.44;97389.91;6146433;28;20233;-45
2023/03/31 00:08:34;;;;;;;2.23;1.10;;;;;;;9.47;68.46;97392.09;6151692;28;20414;-45
2023/03/31 00:11:36;;;;;;;1.30;0.80;;;;;;;9.32;68.65;97383.88;6146043;28;20719;-45
2023/03/31 00:14:39;;;;;;;1.87;1.23;;;;;;;9.28;69.51;97388.06;6148519;28;20241;-45
2023/03/31 00:17:42;;;;;;;2.20;1.20;;;;;;;9.63;67.67;97385.16;6146213;28;20651;-45
2023/03/31 00:20:44;;;;;;;3.03;1.27;;;;;;;9.48;68.99;97388.41;6145501;28;20230;-45
2023/03/31 00:23:46;;;;;;;1.13;0.90;;;;;;;9.30;69.65;97383.31;6145779;28;20320;-45
2023/03/31 00:26:48;;;;;;;1.30;1.20;;;;;;;9.11;70.30;97368.63;6146913;28;20377;-50
2023/03/31 00:29:51;;;;;;;2.50;1.47;;;;;;;8.90;71.02;97364.81;6149539;28;20233;-45
2023/03/31 00:32:54;;;;;;;1.83;1.20;;;;;;;8.59;72.71;97363.44;6145809;28;20242;-49
2023/03/31 00:36:00;;;;;;;2.77;1.40;;;;;;;8.36;73.23;97381.06;6145347;28;20651;-46
2023/03/31 00:39:08;;;;;;;4.20;1.20;;;;;;;8.20;73.51;97371.94;6150177;28;20583;-48
2023/03/31 00:42:13;;;;;;;1.97;1.40;;;;;;;7.81;74.34;97320.47;6144026;28;20229;-49
2023/03/31 00:45:15;;;;;;;2.70;1.40;;;;;;;7.95;74.91;97363.47;6146632;28;20219;-46
2023/03/31 00:48:19;;;;;;;4.13;1.90;;;;;;;7.99;75.85;97359.31;6127860;28;20561;-45
2023/03/31 00:51:21;;;;;;;2.80;1.70;;;;;;;7.89;76.24;97359.88;6145855;28;20238;-47
2023/03/31 00:54:25;;;;;;;5.67;2.07;;;;;;;8.00;76.29;97364.38;6160459;28;20668;-45
2023/03/31 00:57:32;;;;;;;3.70;1.60;;;;;;;8.00;76.16;97353.75;6164631;28;20766;-49
2023/03/31 01:00:34;;;;;;;3.90;2.40;;;;;;;8.14;76.05;97340.25;6153041;28;20312;-48
2023/03/31 01:03:37;;;;;;;4.40;2.13;;;;;;;8.23;75.30;97330.88;6144483;28;20240;-48
2023/03/31 01:06:56;;;;;;;2.10;1.90;;;;;;;8.24;75.66;97340.44;6111757;28;20226;-45
2023/03/31 01:10:01;;;;;;;3.30;1.83;;;;;;;8.28;75.08;97341.59;6121505;28;20289;-48
2023/03/31 01:13:03;;;;;;;3.47;2.37;;;;;;;8.31;74.74;97341.09;6151802;28;20242;-48
2023/03/31 01:16:06;;;;;;;4.27;2.47;;;;;;;8.73;73.35;97333.72;6147679;28;20376;-47
2023/03/31 01:19:19;;;;;;;3.07;2.10;;;;;;;8.65;73.93;97338.59;6125383;28;20244;-46
2023/03/31 01:22:40;;;;;;;4.20;2.30;;;;;;;9.12;71.08;97333.06;6145690;28;20230;-46
2023/03/31 01:26:10;;;;;;;2.63;2.43;;;;;;;9.55;69.55;97324.41;6148339;28;20319;-45
2023/03/31 01:29:38;;;;;;;3.47;2.30;;;;;;;9.67;68.41;97332.31;6149207;28;20283;-50
2023/03/31 01:32:42;;;;;;;3.50;2.13;;;;;;;9.95;67.35;97329.50;6147567;28;20240;-46
2023/03/31 01:35:48;;;;;;;5.63;2.17;;;;;;;9.73;68.38;97323.34;6144602;28;20323;-48
2023/03/31 01:39:16;;;;;;;4.07;2.40;;;;;;;10.17;65.68;97326.03;6130057;28;20344;-49
2023/03/31 01:42:29;;;;;;;4.37;2.50;;;;;;;10.26;65.54;97316.63;6135172;28;20620;-45
2023/03/31 01:45:32;;;;;;;3.23;2.17;;;;;;;10.11;66.14;97319.06;6144424;28;20651;-46
2023/03/31 01:49:01;;;;;;;2.97;2.30;;;;;;;9.77;67.25;97311.97;6159304;28;20241;-49
2023/03/31 01:52:18;;;;;;;5.27;2.20;;;;;;;10.16;65.39;97309.28;6143899;28;20232;-48
2023/03/31 01:55:51;;;;;;;2.00;1.70;;;;;;;10.13;65.45;97298.31;6144782;28;20654;-45
2023/03/31 01:59:02;;;;;;;7.13;2.33;;;;;;;9.89;66.37;97300.41;6153181;28;20946;-50
2023/03/31 02:02:11;;;;;;;5.43;2.20;;;;;;;9.56;67.91;97296.78;6134128;28;20246;-45
2023/03/31 02:05:17;;;;;;;2.83;1.90;;;;;;;8.91;69.85;97305.31;6145532;28;20233;-44
2023/03/31 02:08:33;;;;;;;2.33;1.97;;;;;;;8.40;71.60;97286.66;6128294;28;20362;-48
2023/03/31 02:11:39;;;;;;;2.90;1.90;;;;;;;7.99;72.84;97298.28;6139207;28;20229;-46
2023/03/31 02:14:45;;;;;;;2.33;2.13;;;;;;;7.63;74.04;97283.47;6143514;28;20238;-46
2023/03/31 02:17:50;;;;;;;4.70;2.23;;;;;;;7.40;75.24;97287.75;6141863;28;20654;-47
2023/03/31 02:20:56;;;;;;;3.40;2.13;;;;;;;7.20;76.11;97285.47;6144754;28;20245;-47
2023/03/31 02:24:03;;;;;;;5.47;1.80;;;;;;;7.03;76.21;97275.75;6151973;28;20576;-45
2023/03/31 02:27:25;;;;;;;6.13;2.10;;;;;;;6.92;77.53;97274.72;6144742;28;20591;-46
2023/03/31 02:30:40;;;;;;;3.80;2.63;;;;;;;6.61;78.41;97239.56;6161487;28;20234;-46
2023/03/31 02:33:42;;;;;;;2.70;2.03;;;;;;;6.59;77.94;97264.63;6143364;28;20378;-48
2023/03/31 02:36:44;;;;;;;2.57;2.20;;;;;;;6.43;78.13;97261.59;6144996;28;20380;-46
2023/03/31 02:39:52;;;;;;;3.63;2.20;;;;;;;6.22;77.84;97256.81;6127106;28;20235;-45
2023/03/31 02:42:54;;;;;;;3.17;1.83;;;;;;;6.06;78.22;97271.47;6142760;28;20238;-44
2023/03/31 02:45:56;;;;;;;2.50;1.83;;;;;;;5.81;78.34;97246.91;6143823;28;20488;-48
2023/03/31 02:49:01;;;;;;;4.30;1.93;;;;;;;5.63;79.40;97253.84;6144432;28;20233;-50
2023/03/31 02:52:18;;;;;;;5.07;1.93;;;;;;;5.42;79.39;97255.09;6143872;28;20242;-46
2023/03/31 02:55:30;;;;;;;2.43;1.87;;;;;;;5.28;80.19;97253.59;6137976;28;20251;-46
2023/03/31 02:58:40;;;;;;;4.37;2.13;;;;;;;5.15;80.79;97259.00;6153953;28;20244;-45
2023/03/31 03:01:56;;;;;;;2.50;2.03;;;;;;;4.98;81.10;97258.75;6128592;28;20247;-45
2023/03/31 03:05:11;;;;;;;3.93;2.00;;;;;;;4.96;82.15;97257.34;6152001;28;20603;-46
2023/03/31 03:08:45;;;;;;;3.67;2.40;;;;;;;4.76;82.03;97249.59;6135734;28;20239;-45
2023/03/31 03:12:04;;;;;;;3.97;1.97;;;;;;;4.40;81.98;97232.59;6158580;28;20240;-48
2023/03/31 03:15:36;;;;;;;4.07;2.03;;;;;;;4.47;82.95;97251.81;6161401;28;20243;-48
2023/03/31 03:18:38;;;;;;;4.67;2.47;;;;;;;4.43;82.92;97250.63;6133561;28;20260;-45
2023/03/31 03:21:40;;;;;;;18.27;10.57;;;;;;;4.20;82.80;97243.28;6145949;28;20239;-46
2023/03/31 03:24:43;;;;;;;6.30;2.83;;;;;;;4.16;84.04;97239.44;6151454;28;20246;-45
2023/03/31 03:27:45;;;;;;;4.03;1.93;;;;;;;4.11;84.14;97244.53;6148300;28;20811;-47
2023/03/31 03:30:52;;;;;;;6.47;2.93;;;;;;;4.16;84.89;97239.44;6148809;28;20237;-48
2023/03/31 03:33:54;;;;;;;4.47;2.30;;;;;;;4.03;84.12;97242.16;6151728;28;20834;-46
2023/03/31 03:36:57;;;;;;;3.20;2.30;;;;;;;3.96;84.96;97239.56;6147869;28;20252;-47
2023/03/31 03:39:59;;;;;;;3.40;2.50;;;;;;;3.93;85.19;97244.44;6145973;28;20245;-49
2023/03/31 03:43:01;;;;;;;3.03;2.23;;;;;;;3.95;85.10;97242.41;6147325;28;20239;-48
2023/03/31 03:46:04;;;;;;;2.90;2.43;;;;;;;3.79;85.02;97233.13;6130493;28;20276;-48
2023/03/31 03:49:06;;;;;;;3.73;2.20;;;;;;;3.90;85.42;97239.59;6147214;28;20317;-50
2023/03/31 03:52:08;;;;;;;7.57;2.20;;;;;;;3.80;84.95;97256.66;6161741;28;20368;-50
2023/03/31 03:55:11;;;;;;;3.10;2.20;;;;;;;3.68;84.82;97246.97;6147391;28;20733;-48
2023/03/31 03:58:15;;;;;;;4.47;1.93;;;;;;;3.67;85.70;97245.34;6146311;28;20329;-50
2023/03/31 04:01:18;;;;;;;3.87;1.80;;;;;;;3.51;85.19;97249.25;6151400;28;20272;-45
2023/03/31 04:04:20;;;;;;;3.50;2.20;;;;;;;3.32;86.15;97200.91;6132481;28;20308;-45
2023/03/31 04:07:22;;;;;;;3.43;2.23;;;;;;;3.54;85.98;97222.50;6146406;28;20244;-44
2023/03/31 04:10:24;;;;;;;5.03;2.33;;;;;;;3.51;85.98;97226.38;6146467;28;20313;-44
2023/03/31 04:13:26;;;;;;;3.93;2.30;;;;;;;3.51;86.18;97225.56;6147941;28;20248;-44
2023/03/31 04:16:29;;;;;;;3.37;1.93;;;;;;;3.50;86.35;97221.31;6146906;28;20242;-44
2023/03/31 04:19:31;;;;;;;3.07;1.90;;;;;;;3.42;85.81;97213.63;6144821;28;20242;-44
2023/03/31 04:22:39;;;;;;;2.60;2.20;;;;;;;3.46;86.72;97210.38;6147648;28;20244;-45
2023/03/31 04:25:45;;;;;;;6.33;2.40;;;;;;;3.47;86.74;97219.09;6146378;28;20235;-47
2023/03/31 04:28:49;;;;;;;4.70;2.27;;;;;;;3.50;86.99;97216.06;6146338;28;20268;-45
2023/03/31 04:31:57;;;;;;;5.17;2.10;;;;;;;3.44;86.38;97204.50;6145689;28;20610;-46
2023/03/31 04:35:01;;;;;;;4.40;2.33;;;;;;;3.41;86.78;97188.34;6146282;28;20238;-44
2023/03/31 04:38:03;;;;;;;4.67;2.10;;;;;;;3.39;86.78;97187.72;6146022;28;20252;-44
2023/03/31 04:41:06;;;;;;;2.30;1.97;;;;;;;3.32;86.79;97187.75;6146629;28;20277;-44
2023/03/31 04:44:08;;;;;;;3.90;1.80;;;;;;;3.35;86.76;97187.34;6148959;28;20247;-45
2023/03/31 04:47:10;;;;;;;3.03;1.97;;;;;;;3.16;86.23;97177.69;6145777;28;20399;-44
2023/03/31 04:50:13;;;;;;;3.80;1.97;;;;;;;3.09;86.99;97182.94;6145172;28;20285;-43
2023/03/31 04:53:17;;;;;;;3.40;1.80;;;;;;;3.10;86.77;97184.56;6145384;28;20252;-44
2023/03/31 04:56:21;;;;;;;3.77;1.80;;;;;;;3.04;86.84;97183.56;6146278;28;20246;-46
2023/03/31 04:59:23;;;;;;;4.27;1.83;;;;;;;3.05;87.08;97190.47;6152330;28;20320;-45
2023/03/31 05:02:25;;;;;;;4.13;1.50;;;;;;;2.98;87.58;97186.22;6145604;28;20274;-44
2023/03/31 05:05:27;;;;;;;3.63;2.80;;;;;;;3.10;87.84;97187.19;6144523;28;20241;-44
2023/03/31 05:08:30;;;;;;;3.23;2.27;;;;;;;3.04;87.41;97178.28;6145775;28;20253;-46
2023/03/31 05:11:32;;;;;;;4.67;2.50;;;;;;;3.14;88.12;97172.59;6145708;28;20233;-44
2023/03/31 05:14:34;;;;;;;3.97;1.93;;;;;;;3.15;87.66;97179.47;6160489;28;20241;-45
2023/03/31 05:17:36;;;;;;;3.17;2.03;;;;;;;3.22;87.90;97169.75;6144642;28;20239;-48
2023/03/31 05:20:39;;;;;;;3.63;2.17;;;;;;;3.25;87.98;97179.03;6144132;28;20574;-47
2023/03/31 05:23:42;;;;;;;2.23;1.93;;;;;;;3.28;88.01;97171.56;6145476;28;20250;-47
2023/03/31 05:26:48;;;;;;;4.87;2.77;;;;;;;3.37;88.55;97177.41;6146565;28;20817;-44
2023/03/31 05:29:50;;;;;;;5.20;2.10;;;;;;;3.33;87.76;97171.72;6126954;28;20242;-47
2023/03/31 05:32:53;;;;;;;5.13;2.57;;;;;;;3.44;88.43;97175.53;6147155;28;20273;-45
2023/03/31 05:35:56;;;;;;;5.27;2.40;;;;;;;3.60;88.87;97167.19;6144304;28;20264;-45
2023/03/31 05:38:58;;;;;;;3.67;2.20;;;;;;;3.67;88.67;97159.25;6147786;28;20627;-46
2023/03/31 05:42:00;;;;;;;3.43;2.20;;;;;;;3.74;88.57;97149.47;6143732;28;20289;-45
2023/03/31 05:45:03;;;;;;;4.43;2.13;;;;;;;3.79;88.43;97154.09;6144912;28;20777;-46
2023/03/31 05:48:08;;;;;;;4.30;2.00;;;;;;;3.80;88.62;97148.63;6145335;28;20782;-45
2023/03/31 05:51:10;;;;;;;3.93;1.87;;;;;;;3.84;88.40;97147.19;6144105;28;20260;-46
2023/03/31 05:54:13;;;;;;;4.43;2.10;;;;;;;3.85;88.67;97138.28;6144584;28;20645;-44
2023/03/31 05:57:15;;;;;;;5.20;2.57;;;;;;;3.96;88.66;97123.59;6144831;28;20237;-45
2023/03/31 06:00:17;;;;;;;5.97;2.30;;;;;;;3.87;88.74;97077.44;6149559;28;20808;-45
2023/03/31 06:03:20;;;;;;;2.43;2.23;;;;;;;4.26;88.72;97112.44;6144483;28;20213;-44
2023/03/31 06:06:22;;;;;;;6.73;2.60;;;;;;;4.40;88.86;97113.94;6147947;28;20226;-48
2023/03/31 06:09:25;;;;;;;4.00;2.10;;;;;;;4.53;88.64;97103.28;6145565;28;20230;-45
2023/03/31 06:12:27;;;;;;;5.13;2.27;;;;;;;4.51;88.75;97078.13;6144021;28;20610;-48
2023/03/31 06:15:30;;;;;;;3.23;1.80;;;;;;;4.71;88.49;97097.19;6143368;28;20230;-47
2023/03/31 06:18:34;;;;;;;3.83;2.17;;;;;;;4.75;88.56;97087.84;6141674;28;20325;-44
2023/03/31 06:21:36;;;;;;;4.70;2.10;;;;;;;4.91;88.78;97089.06;6143003;28;20701;-47
2023/03/31 06:24:38;;;;;;;3.17;2.10;;;;;;;5.02;88.66;97085.69;6143324;28;20304;-46
2023/03/31 06:27:41;;;;;;;4.30;2.10;;;;;;;4.93;88.47;97065.94;6143584;28;20761;-46
2023/03/31 06:30:43;;;;;;;5.37;2.10;;;;;;;5.20;88.29;97078.81;6131342;28;20223;-46
2023/03/31 06:33:46;;;;;;;6.90;2.50;;;;;;;5.34;88.77;97073.13;6148131;28;20344;-47
2023/03/31 06:36:48;;;;;;;3.50;1.90;;;;;;;5.43;88.33;97082.34;6145149;28;20238;-47
2023/03/31 06:39:50;;;;;;;5.03;2.13;;;;;;;5.64;88.68;97067.84;6148997;28;20996;-47
2023/03/31 06:42:52;;;;;;;3.63;1.80;;;;;;;5.72;88.26;97052.72;6143847;28;20739;-48
2023/03/31 06:45:55;;;;;;;5.23;2.50;;;;;;;5.62;88.15;97032.13;6126077;28;20235;-46
2023/03/31 06:48:58;;;;;;;2.87;1.93;;;;;;;5.94;87.94;97051.97;6144358;28;20628;-46
2023/03/31 06:52:00;;;;;;;3.10;1.60;;;;;;;5.97;87.88;97047.28;6144084;28;20285;-48
2023/03/31 06:55:02;;;;;;;3.73;1.90;;;;;;;6.03;87.79;97038.44;6144370;28;20231;-49
2023/03/31 06:58:05;;;;;;;4.70;1.80;;;;;;;6.10;87.76;97037.25;6147720;28;20247;-46
2023/03/31 07:01:07;;;;;;;3.07;1.63;;;;;;;6.22;88.08;97037.28;6154046;28;20248;-48
2023/03/31 07:04:09;;;;;;;2.87;2.00;;;;;;;6.45;88.01;97039.94;6144591;28;20290;-47
2023/03/31 07:07:11;;;;;;;3.67;1.60;;;;;;;6.64;87.67;97029.19;6148079;28;20895;-49
2023/03/31 07:10:14;;;;;;;2.60;1.43;;;;;;;6.76;87.16;97027.34;6144971;28;20886;-49
2023/03/31 07:13:17;;;;;;;2.83;1.50;;;;;;;7.11;86.82;97014.03;6146749;28;20388;-48
2023/03/31 07:16:19;;;;;;;3.30;1.40;;;;;;;7.38;86.83;97003.66;6147629;28;20304;-47
2023/03/31 07:19:21;;;;;;;3.17;1.50;;;;;;;7.79;87.08;96996.41;6147212;28;20728;-51
2023/03/31 07:22:23;;;;;;;4.53;1.60;;;;;;;8.12;86.60;96971.69;6162515;28;20320;-48
2023/03/31 07:25:25;;;;;;;2.00;1.37;;;;;;;8.64;85.54;96984.66;6148308;28;20240;-51
2023/03/31 07:28:28;;;;;;;2.07;1.40;;;;;;;8.98;85.30;96981.88;6145588;28;20268;-50
2023/03/31 07:31:31;;;;;;;2.23;1.20;;;;;;;9.23;85.42;96976.03;6149383;28;20370;-50
2023/03/31 07:34:34;;;;;;;2.03;1.10;;;;;;;9.45;85.09;96968.81;6147390;28;20413;-52
2023/03/31 07:37:41;;;;;;;2.13;1.23;;;;;;;9.71;84.61;96969.06;6146769;28;20724;-51
2023/03/31 07:40:44;;;;;;;3.37;1.43;;;;;;;9.67;83.58;96920.09;6147149;28;20229;-52
2023/03/31 07:43:56;;;;;;;4.00;1.37;;;;;;;9.96;80.10;96912.56;6145169;28;20250;-53
2023/03/31 07:47:03;;;;;;;2.50;1.30;;;;;;;10.64;79.16;96934.81;6151422;28;20256;-53
2023/03/31 07:50:06;;;;;;;3.53;1.17;;;;;;;11.16;78.50;96960.53;6148359;28;20239;-53
2023/03/31 07:53:08;;;;;;;1.40;0.93;;;;;;;11.46;76.60;96949.13;6147103;28;20288;-52
2023/03/31 07:56:10;;;;;;;3.43;1.30;;;;;;;11.71;77.41;96937.66;6146202;28;20331;-52
2023/03/31 07:59:13;;;;;;;1.83;1.13;;;;;;;11.87;75.43;96917.13;6156205;28;20242;-53
2023/03/31 08:02:16;;;;;;;1.80;1.03;;;;;;;12.10;74.94;96923.78;6160441;28;20241;-51
2023/03/31 08:05:20;;;;;;;1.90;1.10;;;;;;;12.22;72.27;96923.53;6146491;28;20268;-46
2023/03/31 08:08:22;;;;;;;2.07;1.10;;;;;;;12.33;71.45;96919.75;6145332;28;20237;-52
2023/03/31 08:11:25;;;;;;;3.20;1.27;;;;;;;12.45;69.35;96920.22;6146864;28;20235;-47
2023/03/31 08:14:27;;;;;;;2.00;1.00;;;;;;;12.55;68.26;96916.72;6147247;28;20248;-46
2023/03/31 08:17:42;;;;;;;4.10;1.30;;;;;;;12.68;66.32;96908.13;6145644;28;20271;-48
2023/03/31 08:20:44;;;;;;;1.30;0.90;;;;;;;12.78;66.50;96904.63;6144815;28;20242;-46
2023/03/31 08:23:53;;;;;;;1.93;1.13;;;;;;;12.87;67.08;96909.09;6149680;28;20242;-47
2023/03/31 08:26:55;;;;;;;1.70;1.00;;;;;;;12.94;66.68;96895.44;6150550;28;20765;-46
2023/03/31 08:29:57;;;;;;;2.47;1.37;;;;;;;13.01;67.17;96893.28;6143041;28;20878;-49
2023/03/31 08:32:59;;;;;;;1.70;1.10;;;;;;;13.06;67.39;96885.22;6145909;28;20715;-48
2023/03/31 08:36:09;;;;;;;4.53;1.57;;;;;;;13.10;66.05;96874.75;6146277;28;20230;-47
2023/03/31 08:39:12;;;;;;;1.17;0.90;;;;;;;13.16;65.25;96879.81;6129302;28;20263;-46
2023/03/31 08:42:30;;;;;;;1.60;0.97;;;;;;;13.23;64.36;96860.78;6148097;28;20309;-47
2023/03/31 08:45:40;;;;;;;2.93;1.20;;;;;;;13.33;63.24;96854.56;6145171;28;20232;-47
2023/03/31 08:48:53;;;;;;;3.20;1.13;;;;;;;13.36;63.10;96856.69;6145542;28;20279;-48
2023/03/31 08:52:01;;;;;;;2.07;1.17;;;;;;;13.38;62.32;96846.50;6150176;28;20347;-47
2023/03/31 08:55:07;;;;;;;4.87;1.20;;;;;;;13.40;61.85;96836.34;6147901;28;20244;-46
2023/03/31 08:58:31;;;;;;;2.57;1.27;;;;;;;13.27;62.99;96824.38;6145533;28;20290;-49
2023/03/31 09:01:43;;;;;;;4.27;1.60;;;;;;;13.38;61.63;96833.13;6149082;28;20718;-48
2023/03/31 09:05:39;;;;;;;3.43;1.67;;;;;;;13.39;62.33;96826.69;6144796;28;20338;-47
2023/03/31 09:09:02;;;;;;;2.70;1.33;;;;;;;13.43;61.49;96827.72;6145177;28;20233;-49
2023/03/31 09:12:13;;;;;;;4.00;1.50;;;;;;;13.47;61.84;96826.09;6151830;28;20231;-48
2023/03/31 09:15:27;;;;;;;2.37;1.23;;;;;;;13.49;58.88;96828.47;6158321;28;20304;-50
2023/03/31 09:18:34;;;;;;;2.37;1.30;;;;;;;13.51;59.73;96818.31;6141909;28;20242;-47
2023/03/31 09:21:43;;;;;;;3.00;1.70;;;;;;;13.41;61.21;96800.47;6148919;28;20298;-46
2023/03/31 09:25:33;;;;;;;1.73;1.30;;;;;;;13.51;61.50;96811.06;6146448;28;20317;-47
2023/03/31 09:28:38;;;;;;;1.93;1.30;;;;;;;13.49;60.79;96799.84;6128394;29;20235;-47
2023/03/31 09:31:42;;;;;;;2.23;1.40;;;;;;;13.50;61.13;96789.97;6129875;28;20301;-48
2023/03/31 09:34:49;;;;;;;5.30;1.53;;;;;;;13.53;61.24;96782.16;6129724;29;20256;-48
2023/03/31 09:37:52;;;;;;;3.53;1.30;;;;;;;13.55;61.70;96769.31;6127485;29;20320;-46
2023/03/31 09:40:57;;;;;;;4.33;1.60;;;;;;;13.60;61.22;96765.78;6130513;29;20321;-48
2023/03/31 09:43:59;;;;;;;3.20;1.33;;;;;;;13.66;62.38;96754.72;6129419;28;20687;-46
2023/03/31 09:47:02;;;;;;;3.23;1.40;;;;;;;13.71;61.66;96748.53;6128964;29;20230;-51
2023/03/31 09:50:09;;;;;;;3.83;1.50;;;;;;;13.75;59.53;96740.72;6129874;29;20234;-47
2023/03/31 09:53:31;;;;;;;2.83;1.40;;;;;;;13.77;60.26;96739.34;6129798;29;20234;-48
2023/03/31 09:56:42;;;;;;;4.10;1.60;;;;;;;13.74;59.71;96747.13;6125298;29;20289;-47
2023/03/31 09:59:50;;;;;;;1.93;1.67;;;;;;;13.68;58.71;96739.16;6129940;28;20238;-47
2023/03/31 10:02:56;;;;;;;2.07;1.50;;;;;;;13.55;59.48;96731.84;6129233;28;20772;-47
2023/03/31 10:05:58;;;;;;;2.80;1.90;;;;;;;13.55;58.05;96742.53;6145991;28;20386;-47
2023/03/31 10:09:04;;;;;;;3.73;1.80;;;;;;;13.45;59.08;96731.13;6144278;28;20385;-50
2023/03/31 10:12:14;;;;;;;1.90;1.60;;;;;;;13.33;59.39;96726.97;6129187;28;20234;-47
2023/03/31 10:15:24;;;;;;;1.87;1.60;;;;;;;13.32;59.78;96722.69;6143010;28;20591;-51
2023/03/31 10:18:35;;;;;;;3.00;1.70;;;;;;;13.20;59.38;96708.88;6146805;28;20372;-49
2023/03/31 10:21:37;;;;;;;2.93;1.60;;;;;;;13.33;58.50;96707.44;6134453;28;20241;-47
2023/03/31 10:24:43;;;;;;;2.73;1.83;;;;;;;13.48;57.30;96709.97;6145526;28;20226;-47
2023/03/31 10:27:52;;;;;;;4.23;1.87;;;;;;;13.60;56.80;96698.88;6147419;28;20705;-47
2023/03/31 10:31:00;;;;;;;2.37;1.80;;;;;;;13.72;56.73;96696.56;6146032;28;20381;-50
2023/03/31 10:34:15;;;;;;;2.80;1.93;;;;;;;13.86;56.88;96694.00;6150673;28;20251;-48
2023/03/31 10:37:22;;;;;;;2.43;2.03;;;;;;;13.94;55.79;96698.75;6148358;28;20609;-51
2023/03/31 10:40:27;;;;;;;2.20;1.87;;;;;;;14.01;54.42;96715.25;6147173;28;20329;-46
2023/03/31 10:43:41;;;;;;;4.10;1.93;;;;;;;13.93;54.39;96722.00;6148349;28;20836;-47
2023/03/31 10:46:48;;;;;;;3.17;2.00;;;;;;;13.91;53.73;96707.34;6146308;28;20257;-50
2023/03/31 10:49:56;;;;;;;1.67;1.50;;;;;;;13.92;54.30;96711.59;6151756;28;20233;-47
2023/03/31 10:53:13;;;;;;;3.63;2.00;;;;;;;13.93;54.16;96711.31;6148112;28;20230;-48
2023/03/31 10:56:50;;;;;;;2.33;1.60;;;;;;;13.91;54.90;96728.75;6149829;28;20258;-48
2023/03/31 11:00:12;;;;;;;2.47;1.60;;;;;;;13.87;54.87;96744.59;6078801;29;20236;-47
2023/03/31 11:03:22;;;;;;;4.77;1.83;;;;;;;13.88;56.16;96745.38;6073972;29;20229;-47
2023/03/31 11:06:36;;;;;;;2.23;1.43;;;;;;;13.91;56.28;96747.50;6074220;29;20296;-47
2023/03/31 11:10:16;;;;;;;2.47;1.87;;;;;;;13.97;52.80;96732.16;6075467;29;20243;-49
2023/03/31 11:13:43;;;;;;;2.30;2.10;;;;;;;13.97;51.43;96721.44;6075388;29;20247;-46
2023/03/31 11:17:00;;;;;;;3.30;2.00;;;;;;;13.91;56.09;96705.44;6076630;29;20430;-48
2023/03/31 11:20:39;;;;;;;2.70;1.80;;;;;;;13.99;57.30;96698.66;6075013;29;20232;-49
2023/03/31 11:24:03;;;;;;;7.70;2.30;;;;;;;14.19;54.91;96671.63;6075799;29;20232;-48
2023/03/31 11:27:35;;;;;;;2.43;1.70;;;;;;;14.44;56.07;96645.53;6077289;29;20296;-50
2023/03/31 11:30:41;;;;;;;5.43;2.03;;;;;;;14.76;51.15;96615.28;6075898;29;20228;-47
2023/03/31 11:34:08;;;;;;;3.33;2.20;;;;;;;14.86;49.46;96588.28;6072967;29;20232;-49
2023/03/31 11:37:30;;;;;;;2.73;2.07;;;;;;;15.03;47.51;96595.78;6151362;28;20702;-47
2023/03/31 11:40:51;;;;;;;2.10;1.90;;;;;;;15.17;47.59;96588.53;6151188;28;20249;-47
2023/03/31 11:44:01;;;;;;;3.27;1.90;;;;;;;15.58;46.57;96571.59;6154236;28;20788;-47
2023/03/31 11:47:12;;;;;;;2.77;1.50;;;;;;;15.85;45.41;96556.53;6162308;28;20222;-49
2023/03/31 11:50:28;;;;;;;2.60;1.77;;;;;;;16.05;42.82;96550.69;6149102;28;20231;-51
2023/03/31 11:53:35;;;;;;;2.50;1.70;;;;;;;16.28;43.70;96543.44;6146539;28;20273;-48
2023/03/31 11:56:40;;;;;;;2.97;1.87;;;;;;;16.76;39.74;96542.81;6153520;28;20734;-49
2023/03/31 11:59:44;;;;;;;5.30;2.10;;;;;;;16.94;40.30;96540.97;6155601;28;20732;-49
2023/03/31 12:03:06;;;;;;;2.70;1.80;;;;;;;16.96;41.48;96528.81;6150971;28;20666;-47
2023/03/31 12:06:18;;;;;;;1.80;1.63;;;;;;;17.02;40.63;96526.78;6145688;28;20857;-53
2023/03/31 12:09:36;;;;;;;2.70;1.83;;;;;;;16.89;40.64;96524.97;6145741;28;20226;-47
2023/03/31 12:12:44;;;;;;;2.47;1.53;;;;;;;16.72;41.78;96510.34;6152349;28;20702;-50
2023/03/31 12:16:04;;;;;;;2.80;1.87;;;;;;;16.35;42.16;96526.88;6151207;28;20592;-48
2023/03/31 12:19:28;;;;;;;4.33;1.97;;;;;;;16.03;45.43;96515.28;6144822;28;20234;-50
2023/03/31 12:22:33;;;;;;;2.20;1.60;;;;;;;15.84;44.62;96515.47;6137760;28;20261;-50
2023/03/31 12:25:51;;;;;;;2.27;1.70;;;;;;;15.48;42.61;96478.66;6152792;28;20233;-50
2023/03/31 12:29:02;;;;;;;6.37;2.00;;;;;;;15.18;45.72;96480.13;6148931;28;20333;-49
2023/03/31 12:32:13;;;;;;;2.27;1.70;;;;;;;15.21;49.54;96522.44;6146087;28;20242;-49
2023/03/31 12:35:24;;;;;;;2.70;1.73;;;;;;;15.02;48.92;96529.78;6145628;28;20238;-49
2023/03/31 12:38:51;;;;;;;2.30;1.43;;;;;;;15.15;48.50;96518.25;6144813;28;20269;-50
2023/03/31 12:41:59;;;;;;;2.03;1.53;;;;;;;15.55;47.08;96515.81;6150707;28;20234;-48
2023/03/31 12:45:09;;;;;;;2.03;1.80;;;;;;;15.65;45.78;96472.66;6149830;28;20285;-48
2023/03/31 12:48:37;;;;;;;2.30;1.80;;;;;;;16.29;44.71;96503.94;6145010;28;20306;-49
2023/03/31 12:52:01;;;;;;;2.73;1.70;;;;;;;16.34;45.84;96504.59;6149849;28;20234;-52
2023/03/31 12:55:18;;;;;;;2.30;2.00;;;;;;;16.35;45.51;96487.34;6149284;28;20750;-49
2023/03/31 12:58:27;;;;;;;2.87;1.80;;;;;;;16.50;44.96;96486.16;6150163;28;20336;-51
2023/03/31 13:01:33;;;;;;;2.97;1.87;;;;;;;16.65;42.81;96485.78;6143906;28;20238;-49
2023/03/31 13:04:37;;;;;;;5.10;1.80;;;;;;;16.64;42.62;96461.88;6144901;28;20241;-48
2023/03/31 13:07:40;;;;;;;2.67;1.87;;;;;;;16.75;43.63;96477.47;6148051;28;20227;-52
2023/03/31 13:10:58;;;;;;;1.70;1.60;;;;;;;16.80;42.53;96471.16;6145077;28;20703;-47
2023/03/31 13:14:19;;;;;;;3.30;1.60;;;;;;;16.84;41.36;96457.88;6145515;28;20357;-52
2023/03/31 13:17:21;;;;;;;4.30;1.93;;;;;;;16.92;41.43;96447.13;6145614;28;20606;-51
2023/03/31 13:20:41;;;;;;;2.90;1.70;;;;;;;16.93;42.54;96421.03;6142858;28;20237;-49
2023/03/31 13:23:45;;;;;;;2.63;1.40;;;;;;;17.11;41.47;96440.69;6147837;28;20970;-47
2023/03/31 13:26:48;;;;;;;3.73;1.53;;;;;;;17.09;39.32;96421.38;6147007;28;20332;-50
2023/03/31 13:29:50;;;;;;;1.50;1.33;;;;;;;17.24;39.77;96426.28;6159636;28;20265;-51
2023/03/31 13:33:08;;;;;;;2.50;1.50;;;;;;;17.13;37.44;96414.25;6144446;28;20607;-49
2023/03/31 13:36:17;;;;;;;1.47;1.30;;;;;;;16.95;38.42;96402.69;6148569;28;20317;-49
2023/03/31 13:39:46;;;;;;;1.20;1.10;;;;;;;16.87;37.25;96406.16;6143923;28;20285;-48
2023/03/31 13:43:09;;;;;;;3.17;1.50;;;;;;;16.80;37.97;96416.56;6148953;28;20354;-51
2023/03/31 13:46:32;;;;;;;3.30;1.60;;;;;;;16.82;38.06;96398.22;6145117;28;20273;-50
2023/03/31 13:50:12;;;;;;;2.53;1.50;;;;;;;16.67;37.06;96394.03;6157766;28;20222;-51
2023/03/31 13:53:40;;;;;;;2.97;1.43;;;;;;;16.76;36.47;96382.22;6148417;28;20230;-51
2023/03/31 13:56:48;;;;;;;5.20;1.60;;;;;;;16.74;36.67;96365.59;6148640;28;20225;-50
2023/03/31 14:00:23;;;;;;;2.37;1.40;;;;;;;16.55;39.34;96367.78;6129128;28;20267;-50
2023/03/31 14:03:36;;;;;;;3.33;1.60;;;;;;;16.72;35.16;96354.38;6146615;28;20241;-50
2023/03/31 14:06:54;;;;;;;1.60;1.10;;;;;;;16.41;38.74;96367.09;6147750;28;20238;-49
2023/03/31 14:09:58;;;;;;;2.93;1.60;;;;;;;16.28;37.42;96379.50;6144666;28;20226;-52
2023/03/31 14:13:09;;;;;;;3.13;1.57;;;;;;;16.49;37.85;96379.75;6158232;28;20233;-51
2023/03/31 14:16:13;;;;;;;3.57;1.70;;;;;;;16.68;35.42;96366.84;6143872;28;20620;-48
2023/03/31 14:19:46;;;;;;;4.00;1.67;;;;;;;16.67;37.99;96375.22;6142722;28;20253;-51
2023/03/31 14:23:03;;;;;;;2.60;1.80;;;;;;;16.54;38.84;96382.28;6148565;28;20252;-51
2023/03/31 14:26:25;;;;;;;5.00;2.10;;;;;;;16.48;36.25;96367.41;6149088;28;20238;-51
2023/03/31 14:29:59;;;;;;;2.10;1.60;;;;;;;16.38;37.08;96378.44;6148360;28;20322;-51
2023/03/31 14:33:23;;;;;;;1.80;1.43;;;;;;;16.11;38.22;96382.94;6146643;28;20325;-49
2023/03/31 14:36:56;;;;;;;2.27;1.90;;;;;;;16.17;38.86;96380.91;6143605;28;20234;-50
2023/03/31 14:40:02;;;;;;;2.00;1.30;;;;;;;15.92;39.02;96393.09;6147417;28;20248;-50
2023/03/31 14:43:04;;;;;;;2.47;1.50;;;;;;;16.09;38.15;96395.84;6147395;28;20241;-51
2023/03/31 14:46:08;;;;;;;3.20;1.80;;;;;;;15.83;40.82;96401.09;6150510;28;20777;-50
2023/03/31 14:49:24;;;;;;;4.23;1.70;;;;;;;15.74;40.80;96414.47;6143416;28;20241;-50
2023/03/31 14:52:30;;;;;;;3.00;1.37;;;;;;;15.72;40.82;96442.72;6143267;28;20242;-50
2023/03/31 14:55:33;;;;;;;1.93;1.40;;;;;;;15.87;36.55;96423.56;6144009;28;20247;-51